createdAt,value
2019-01-22T00:00:13.240Z,79.93
2019-01-22T00:02:41.924Z,91.23
2019-01-22T00:05:11.281Z,85.40
2019-01-22T00:07:39.901Z,80.13
2019-01-22T00:10:10.238Z,83.37
2019-01-22T00:12:38.950Z,84.73
2019-01-22T00:15:10.933Z,77.67
2019-01-22T00:17:39.924Z,78.80
2019-01-22T00:20:13.113Z,75.23
2019-01-22T00:22:41.778Z,81.47
2019-01-22T00:25:14.118Z,84.97
2019-01-22T00:27:42.847Z,81.77
2019-01-22T00:30:20.166Z,79.03
2019-01-22T00:32:48.767Z,80.87
2019-01-22T00:35:17.607Z,80.43
2019-01-22T00:37:46.225Z,80.27
2019-01-22T00:40:17.143Z,82.03
2019-01-22T00:42:46.196Z,82.20
2019-01-22T00:45:15.505Z,73.10
2019-01-22T00:47:44.132Z,80.43
2019-01-22T00:50:15.537Z,81.67
2019-01-22T00:52:44.160Z,78.03
2019-01-22T00:55:15.749Z,76.10
2019-01-22T00:57:44.376Z,93.87
2019-01-22T01:00:19.080Z,73.70
2019-01-22T01:02:47.808Z,84.57
2019-01-22T01:05:16.515Z,82.50
2019-01-22T01:07:45.679Z,88.77
2019-01-22T01:10:15.186Z,82.47
2019-01-22T01:12:43.868Z,77.30
2019-01-22T01:15:14.472Z,85.30
2019-01-22T01:17:43.558Z,93.13
2019-01-22T01:20:14.961Z,73.63
2019-01-22T01:22:43.649Z,89.03
2019-01-22T01:25:15.117Z,88.17
2019-01-22T01:27:43.921Z,85.50
2019-01-22T01:30:15.365Z,81.87
2019-01-22T01:32:44.096Z,86.37
2019-01-22T01:35:12.854Z,84.80
2019-01-22T01:37:41.448Z,87.30
2019-01-22T01:40:13.003Z,85.87
2019-01-22T01:42:41.595Z,84.60
2019-01-22T01:45:10.594Z,84.47
2019-01-22T01:47:39.810Z,91.63
2019-01-22T01:50:11.611Z,83.83
2019-01-22T01:52:40.221Z,79.90
2019-01-22T01:55:10.624Z,83.03
2019-01-22T01:57:39.340Z,87.80
2019-01-22T02:00:13.935Z,88.20
2019-01-22T02:02:42.615Z,91.10
2019-01-22T02:05:11.182Z,86.30
2019-01-22T02:07:39.784Z,86.33
2019-01-22T02:10:17.293Z,85.97
2019-01-22T02:12:55.641Z,83.50
2019-01-22T02:15:45.023Z,88.10
2019-01-22T02:18:19.677Z,84.97
2019-01-22T02:21:03.760Z,91.63
2019-01-22T02:23:44.598Z,79.13
2019-01-22T02:26:28.373Z,86.30
2019-01-22T02:29:00.221Z,85.50
2019-01-22T02:31:59.160Z,77.13
2019-01-22T02:34:36.759Z,85.63
2019-01-22T02:37:37.287Z,86.40
2019-01-22T02:40:15.111Z,87.83
2019-01-22T02:43:06.675Z,83.73
2019-01-22T02:45:44.264Z,92.33
2019-01-22T02:48:22.094Z,85.10
2019-01-22T02:50:59.663Z,88.80
2019-01-22T02:53:38.522Z,88.90
2019-01-22T02:56:30.454Z,85.33
2019-01-22T02:59:18.696Z,92.30
2019-01-22T03:02:12.864Z,85.27
2019-01-22T03:04:59.719Z,84.70
2019-01-22T03:07:48.998Z,94.17
2019-01-22T03:10:29.336Z,80.70
2019-01-22T03:13:17.403Z,84.17
2019-01-22T03:15:58.385Z,84.40
2019-01-22T03:18:39.034Z,84.97
2019-01-22T03:21:25.764Z,86.17
2019-01-22T03:23:57.543Z,84.33
2019-01-22T03:26:44.359Z,91.10
2019-01-22T03:29:19.102Z,83.27
2019-01-22T03:31:56.515Z,82.47
2019-01-22T03:34:31.183Z,85.50
2019-01-22T03:37:08.735Z,83.77
2019-01-22T03:39:52.676Z,91.70
2019-01-22T03:42:36.226Z,83.30
2019-01-22T03:45:20.180Z,78.40
2019-01-22T03:48:22.448Z,87.20
2019-01-22T03:51:05.172Z,72.07
2019-01-22T03:53:36.946Z,77.40
2019-01-22T03:56:31.890Z,80.10
2019-01-22T03:59:00.661Z,72.20
2019-01-22T04:01:29.295Z,77.23
2019-01-22T04:03:57.915Z,72.00
2019-01-22T04:06:26.738Z,74.87
2019-01-22T04:08:57.736Z,73.53
2019-01-22T04:11:28.074Z,81.57
2019-01-22T04:13:56.688Z,83.20
2019-01-22T04:16:25.272Z,83.33
2019-01-22T04:18:53.869Z,77.40
2019-01-22T04:21:24.089Z,71.70
2019-01-22T04:24:26.012Z,74.27
2019-01-22T04:27:09.668Z,72.47
2019-01-22T04:29:47.090Z,78.60
2019-01-22T04:32:19.170Z,75.30
2019-01-22T04:35:02.216Z,76.60
2019-01-22T04:37:34.044Z,73.43
2019-01-22T04:40:23.426Z,78.00
2019-01-22T04:43:13.034Z,77.07
2019-01-22T04:45:50.361Z,74.60
2019-01-22T04:48:54.036Z,73.80
2019-01-22T04:51:34.528Z,73.87
2019-01-22T04:54:18.190Z,68.43
2019-01-22T04:57:01.752Z,69.13
2019-01-22T04:59:36.278Z,74.13
2019-01-22T05:02:10.964Z,77.07
2019-01-22T05:04:42.726Z,76.47
2019-01-22T05:07:17.226Z,72.63
2019-01-22T05:10:02.548Z,73.10
2019-01-22T05:12:52.423Z,71.70
2019-01-22T05:15:50.982Z,72.97
2019-01-22T05:18:48.503Z,66.30
2019-01-22T05:21:47.461Z,70.30
2019-01-22T05:24:19.243Z,75.17
2019-01-22T05:27:02.787Z,69.00
2019-01-22T05:29:49.563Z,72.87
2019-01-22T05:32:30.368Z,72.37
2019-01-22T05:35:11.259Z,67.37
2019-01-22T05:38:06.694Z,78.33
2019-01-22T05:40:44.365Z,72.23
2019-01-22T05:43:47.811Z,76.20
2019-01-22T05:46:51.189Z,68.10
2019-01-22T05:49:22.977Z,73.20
2019-01-22T05:52:16.615Z,72.50
2019-01-22T05:54:48.441Z,66.53
2019-01-22T05:57:18.523Z,68.83
2019-01-22T06:00:17.642Z,66.63
2019-01-22T06:02:49.717Z,75.30
2019-01-22T06:05:37.774Z,69.20
2019-01-22T06:08:09.583Z,73.87
2019-01-22T06:10:46.800Z,59.97
2019-01-22T06:13:21.424Z,69.83
2019-01-22T06:15:55.826Z,73.77
2019-01-22T06:18:45.412Z,67.60
2019-01-22T06:21:22.883Z,65.97
2019-01-22T06:24:12.512Z,71.90
2019-01-22T06:26:44.346Z,74.73
2019-01-22T06:29:32.654Z,87.53
2019-01-22T06:32:16.412Z,63.90
2019-01-22T06:34:53.913Z,68.90
2019-01-22T06:37:28.400Z,64.60
2019-01-22T06:40:00.425Z,67.90
2019-01-22T06:42:40.926Z,69.67
2019-01-22T06:45:18.492Z,72.20
2019-01-22T06:48:09.208Z,72.10
2019-01-22T06:50:53.078Z,65.80
2019-01-22T06:53:39.677Z,65.47
2019-01-22T06:56:14.455Z,65.50
2019-01-22T06:59:07.139Z,63.73
2019-01-22T07:01:41.522Z,70.80
2019-01-22T07:04:25.352Z,73.50
2019-01-22T07:07:16.725Z,65.93
2019-01-22T07:10:00.330Z,69.17
2019-01-22T07:12:33.907Z,75.37
2019-01-22T07:15:37.574Z,72.60
2019-01-22T07:18:27.570Z,67.30
2019-01-22T07:21:20.177Z,65.60
2019-01-22T07:24:03.815Z,64.83
2019-01-22T07:26:59.908Z,69.27
2019-01-22T07:30:06.398Z,67.37
2019-01-22T07:32:53.388Z,72.97
2019-01-22T07:35:28.191Z,70.97
2019-01-22T07:37:59.996Z,72.40
2019-01-22T07:40:54.165Z,67.50
2019-01-22T07:43:42.328Z,66.30
2019-01-22T07:46:26.122Z,67.67
2019-01-22T07:49:03.192Z,70.00
2019-01-22T07:52:08.561Z,65.57
2019-01-22T07:55:03.033Z,66.53
2019-01-22T07:57:40.864Z,63.83
2019-01-22T08:00:28.066Z,59.70
2019-01-22T08:03:51.667Z,62.03
2019-01-22T08:06:23.560Z,69.17
2019-01-22T08:09:01.084Z,67.07
2019-01-22T08:11:35.617Z,64.00
2019-01-22T08:14:22.445Z,61.37
2019-01-22T08:16:54.219Z,59.70
2019-01-22T08:19:37.760Z,56.23
2019-01-22T08:22:12.413Z,56.50
2019-01-22T08:25:05.081Z,63.80
2019-01-22T08:28:04.866Z,61.37
2019-01-22T08:30:39.278Z,65.23
2019-01-22T08:33:19.491Z,63.90
2019-01-22T08:36:07.723Z,67.40
2019-01-22T08:38:42.071Z,70.17
2019-01-22T08:41:30.637Z,60.87
2019-01-22T08:44:19.065Z,61.67
2019-01-22T08:47:11.789Z,62.47
2019-01-22T08:49:55.579Z,65.23
2019-01-22T08:52:30.279Z,63.87
2019-01-22T08:55:08.086Z,65.73
2019-01-22T08:57:37.675Z,64.73
2019-01-22T09:00:27.633Z,64.83
2019-01-22T09:03:05.471Z,65.77
2019-01-22T09:05:42.793Z,67.93
2019-01-22T09:08:20.358Z,67.60
2019-01-22T09:10:52.212Z,63.00
2019-01-22T09:13:45.371Z,62.83
2019-01-22T09:16:35.460Z,61.30
2019-01-22T09:19:22.271Z,70.27
2019-01-22T09:22:25.674Z,69.07
2019-01-22T09:25:14.585Z,59.60
2019-01-22T09:27:54.068Z,59.90
2019-01-22T09:30:45.387Z,59.83
2019-01-22T09:33:26.153Z,59.73
2019-01-22T09:36:15.935Z,57.93
2019-01-22T09:38:44.621Z,57.63
2019-01-22T09:41:13.408Z,66.40
2019-01-22T09:43:42.196Z,60.10
2019-01-22T09:46:10.881Z,59.73
2019-01-22T09:48:39.671Z,59.63
2019-01-22T09:51:08.457Z,49.30
2019-01-22T09:53:37.246Z,57.63
2019-01-22T09:56:05.935Z,60.33
2019-01-22T09:58:34.823Z,58.93
2019-01-22T10:01:05.045Z,59.10
2019-01-22T10:03:33.834Z,59.10
2019-01-22T10:06:05.159Z,52.43
2019-01-22T10:08:33.872Z,56.90
2019-01-22T10:11:02.652Z,47.43
2019-01-22T10:13:31.440Z,49.47
2019-01-22T10:16:00.435Z,50.47
2019-01-22T10:18:29.323Z,47.33
2019-01-22T10:20:57.908Z,62.20
2019-01-22T10:23:26.597Z,50.40
2019-01-22T10:25:55.382Z,54.33
2019-01-22T10:28:24.069Z,48.90
2019-01-22T10:30:52.855Z,53.70
2019-01-22T10:33:21.540Z,52.77
2019-01-22T10:35:50.225Z,60.33
2019-01-22T10:38:19.127Z,51.60
2019-01-22T10:40:48.115Z,50.67
2019-01-22T10:43:16.794Z,48.07
2019-01-22T10:45:45.583Z,76.80
2019-01-22T10:48:14.269Z,52.70
2019-01-22T10:50:42.954Z,50.87
2019-01-22T10:53:11.643Z,48.90
2019-01-22T10:55:40.530Z,52.93
2019-01-22T10:58:09.202Z,48.60
2019-01-22T11:00:37.848Z,48.00
2019-01-22T11:03:06.516Z,49.63
2019-01-22T11:05:37.433Z,49.87
2019-01-22T11:08:06.084Z,47.00
2019-01-22T11:10:34.656Z,44.70
2019-01-22T11:13:03.330Z,47.73
2019-01-22T11:15:31.949Z,48.90
2019-01-22T11:18:00.545Z,65.80
2019-01-22T11:20:30.748Z,49.33
2019-01-22T11:22:59.414Z,52.53
2019-01-22T11:25:30.581Z,46.50
2019-01-22T11:27:59.301Z,47.70
2019-01-22T11:30:28.801Z,57.77
2019-01-22T11:32:57.462Z,45.43
2019-01-22T11:35:26.495Z,51.27
2019-01-22T11:37:55.182Z,45.60
2019-01-22T11:40:30.045Z,45.10
2019-01-22T11:42:58.681Z,45.93
2019-01-22T11:45:27.293Z,44.27
2019-01-22T11:47:55.994Z,46.43
2019-01-22T11:50:24.922Z,44.33
2019-01-22T11:52:53.534Z,44.27
2019-01-22T11:55:22.085Z,46.33
2019-01-22T11:57:50.676Z,45.10
2019-01-22T12:00:29.974Z,45.30
2019-01-22T12:02:58.557Z,47.03
2019-01-22T12:05:27.129Z,44.60
2019-01-22T12:07:55.726Z,61.80
2019-01-22T12:10:24.299Z,41.13
2019-01-22T12:12:52.979Z,39.40
2019-01-22T12:15:21.890Z,46.07
2019-01-22T12:17:50.528Z,48.20
2019-01-22T12:20:25.021Z,39.80
2019-01-22T12:22:53.605Z,42.33
2019-01-22T12:25:22.175Z,41.00
2019-01-22T12:27:50.878Z,43.17
2019-01-22T12:30:31.342Z,42.60
2019-01-22T12:33:00.131Z,42.17
2019-01-22T12:35:29.227Z,48.00
2019-01-22T12:37:57.910Z,44.13
2019-01-22T12:40:28.339Z,44.70
2019-01-22T12:42:57.024Z,38.73
2019-01-22T12:45:28.680Z,42.33
2019-01-22T12:47:57.469Z,43.33
2019-01-22T12:50:27.279Z,43.43
2019-01-22T12:52:56.171Z,43.37
2019-01-22T12:55:24.854Z,47.73
2019-01-22T12:57:53.643Z,43.57
2019-01-22T13:00:24.864Z,45.07
2019-01-22T13:02:53.880Z,47.10
2019-01-22T13:05:37.454Z,46.77
2019-01-22T13:08:06.511Z,45.10
2019-01-22T13:10:35.298Z,42.13
2019-01-22T13:13:04.393Z,45.73
2019-01-22T13:15:33.080Z,41.40
2019-01-22T13:18:01.749Z,40.90
2019-01-22T13:20:30.348Z,43.03
2019-01-22T13:22:59.137Z,44.77
2019-01-22T13:25:27.724Z,40.50
2019-01-22T13:27:56.345Z,44.47
2019-01-22T13:30:29.306Z,40.30
2019-01-22T13:32:58.439Z,44.80
2019-01-22T13:35:27.013Z,43.70
2019-01-22T13:37:55.726Z,47.10
2019-01-22T13:40:24.298Z,47.13
2019-01-22T13:42:52.875Z,44.40
2019-01-22T13:45:27.003Z,45.07
2019-01-22T13:47:56.847Z,42.93
2019-01-22T13:50:25.533Z,43.03
2019-01-22T13:52:54.163Z,42.20
2019-01-22T13:55:25.796Z,48.50
2019-01-22T13:57:54.396Z,48.10
2019-01-22T14:01:02.340Z,45.57
2019-01-22T14:03:30.956Z,45.90
2019-01-22T14:05:59.506Z,54.03
2019-01-22T14:08:28.158Z,43.20
2019-01-22T14:10:56.731Z,43.77
2019-01-22T14:13:25.293Z,42.40
2019-01-22T14:15:53.825Z,42.33
2019-01-22T14:18:22.520Z,45.23
2019-01-22T14:20:51.103Z,37.57
2019-01-22T14:23:19.690Z,45.90
2019-01-22T14:25:48.297Z,47.77
2019-01-22T14:28:17.233Z,37.93
2019-01-22T14:30:46.232Z,40.27
2019-01-22T14:33:14.880Z,43.00
2019-01-22T14:35:43.447Z,47.90
2019-01-22T14:38:12.094Z,42.50
2019-01-22T14:40:40.603Z,37.63
2019-01-22T14:43:09.180Z,37.53
2019-01-22T14:45:37.872Z,38.57
2019-01-22T14:48:07.435Z,36.90
2019-01-22T14:50:36.076Z,38.60
2019-01-22T14:53:04.698Z,43.53
2019-01-22T14:55:33.338Z,37.23
2019-01-22T14:58:13.023Z,37.43
2019-01-22T15:00:41.608Z,37.20
2019-01-22T15:03:30.232Z,34.33
2019-01-22T15:05:58.830Z,36.97
2019-01-22T15:08:27.378Z,39.37
2019-01-22T15:10:56.117Z,42.20
2019-01-22T15:13:24.777Z,35.37
2019-01-22T15:15:53.516Z,36.97
2019-01-22T15:18:22.061Z,35.33
2019-01-22T15:20:50.659Z,38.90
2019-01-22T15:23:19.254Z,35.93
2019-01-22T15:25:49.388Z,34.80
2019-01-22T15:28:18.067Z,37.53
2019-01-22T15:30:46.802Z,34.27
2019-01-22T15:33:15.681Z,45.30
2019-01-22T15:35:48.561Z,36.20
2019-01-22T15:38:21.046Z,39.67
2019-01-22T15:40:49.664Z,40.63
2019-01-22T15:43:18.716Z,50.33
2019-01-22T15:45:47.338Z,42.00
2019-01-22T15:48:15.968Z,35.27
2019-01-22T15:50:46.252Z,46.07
2019-01-22T15:53:14.913Z,36.10
2019-01-22T15:55:48.100Z,40.43
2019-01-22T15:58:16.363Z,39.00
2019-01-22T16:00:46.986Z,43.33
2019-01-22T16:03:15.927Z,42.30
2019-01-22T16:05:44.480Z,37.80
2019-01-22T16:08:13.207Z,41.13
2019-01-22T16:10:41.760Z,41.20
2019-01-22T16:13:10.399Z,43.50
2019-01-22T16:15:40.742Z,42.90
2019-01-22T16:18:09.305Z,53.10
2019-01-22T16:20:38.309Z,44.90
2019-01-22T16:23:06.978Z,41.20
2019-01-22T16:25:36.390Z,41.23
2019-01-22T16:28:05.012Z,44.73
2019-01-22T16:30:33.582Z,42.30
2019-01-22T16:33:02.235Z,47.43
2019-01-22T16:35:30.865Z,44.07
2019-01-22T16:37:59.592Z,48.60
2019-01-22T16:40:28.172Z,51.00
2019-01-22T16:42:56.839Z,47.43
2019-01-22T16:45:31.141Z,42.97
2019-01-22T16:48:01.161Z,53.27
2019-01-22T16:50:32.044Z,46.90
2019-01-22T16:53:02.767Z,42.27
2019-01-22T16:55:37.473Z,44.90
2019-01-22T16:58:06.262Z,45.30
2019-01-22T17:00:37.007Z,46.83
2019-01-22T17:03:07.787Z,43.47
2019-01-22T17:05:36.586Z,46.33
2019-01-22T17:08:05.528Z,45.87
2019-01-22T17:10:34.205Z,52.17
2019-01-22T17:13:02.968Z,46.93
2019-01-22T17:15:31.617Z,47.83
2019-01-22T17:18:00.970Z,46.00
2019-01-22T17:20:32.142Z,54.90
2019-01-22T17:23:02.243Z,48.83
2019-01-22T17:25:31.382Z,53.47
2019-01-22T17:28:01.944Z,45.40
2019-01-22T17:30:31.131Z,49.90
2019-01-22T17:33:07.275Z,55.77
2019-01-22T17:35:37.593Z,48.60
2019-01-22T17:38:06.263Z,56.00
2019-01-22T17:40:34.943Z,51.20
2019-01-22T17:43:03.740Z,53.43
2019-01-22T17:45:32.713Z,46.90
2019-01-22T17:48:02.594Z,50.80
2019-01-22T17:50:31.755Z,51.47
2019-01-22T17:53:00.425Z,76.87
2019-01-22T17:55:29.126Z,60.23
2019-01-22T17:57:57.798Z,45.33
2019-01-22T18:00:31.848Z,53.20
2019-01-22T18:03:00.681Z,48.23
2019-01-22T18:05:29.871Z,54.57
2019-01-22T18:07:58.574Z,53.93
2019-01-22T18:10:30.524Z,54.57
2019-01-22T18:12:59.153Z,52.20
2019-01-22T18:15:27.792Z,55.80
2019-01-22T18:17:56.442Z,50.07
2019-01-22T18:20:28.110Z,53.67
2019-01-22T18:22:56.802Z,53.33
2019-01-22T18:25:25.475Z,54.33
2019-01-22T18:27:54.243Z,51.87
2019-01-22T18:30:24.706Z,50.90
2019-01-22T18:32:53.585Z,51.80
2019-01-22T18:35:37.824Z,51.97
2019-01-22T18:38:02.807Z,53.80
2019-01-22T18:40:31.573Z,55.13
2019-01-22T18:43:00.643Z,52.67
2019-01-22T18:45:29.245Z,54.03
2019-01-22T18:47:58.247Z,57.93
2019-01-22T18:50:27.868Z,53.70
2019-01-22T18:52:57.327Z,57.00
2019-01-22T18:55:27.558Z,57.07
2019-01-22T18:57:58.755Z,55.57
2019-01-22T19:00:27.322Z,59.50
2019-01-22T19:02:56.039Z,52.10
2019-01-22T19:05:24.658Z,55.70
2019-01-22T19:07:53.377Z,58.63
2019-01-22T19:10:27.592Z,52.60
2019-01-22T19:12:56.219Z,58.00
2019-01-22T19:15:24.963Z,53.17
2019-01-22T19:17:54.301Z,62.40
2019-01-22T19:20:24.305Z,60.93
2019-01-22T19:22:53.077Z,51.20
2019-01-22T19:25:28.523Z,57.10
2019-01-22T19:27:57.259Z,54.60
2019-01-22T19:30:28.669Z,59.93
2019-01-22T19:32:59.007Z,52.87
2019-01-22T19:35:27.763Z,58.67
2019-01-22T19:37:56.880Z,53.30
2019-01-22T19:40:25.870Z,55.17
2019-01-22T19:42:54.927Z,52.30
2019-01-22T19:45:28.069Z,54.40
2019-01-22T19:47:58.086Z,60.10
2019-01-22T19:50:26.902Z,58.60
2019-01-22T19:52:56.546Z,58.77
2019-01-22T19:55:25.365Z,58.07
2019-01-22T19:57:54.222Z,54.97
2019-01-22T20:00:28.577Z,59.90
2019-01-22T20:02:58.902Z,57.10
2019-01-22T20:05:27.695Z,57.53
2019-01-22T20:07:56.434Z,54.30
2019-01-22T20:10:25.100Z,58.50
2019-01-22T20:12:53.878Z,49.60
2019-01-22T20:15:24.319Z,52.90
2019-01-22T20:17:53.014Z,52.40
2019-01-22T20:20:21.785Z,53.63
2019-01-22T20:22:50.520Z,50.80
2019-01-22T20:25:19.786Z,55.70
2019-01-22T20:27:49.361Z,50.00
2019-01-22T20:30:30.105Z,53.37
2019-01-22T20:33:00.910Z,51.07
2019-01-22T20:35:29.738Z,52.37
2019-01-22T20:37:59.584Z,49.90
2019-01-22T20:40:28.219Z,49.03
2019-01-22T20:42:56.824Z,56.60
2019-01-22T20:45:28.099Z,47.87
2019-01-22T20:47:56.722Z,46.07
2019-01-22T20:50:25.366Z,49.00
2019-01-22T20:52:54.009Z,43.40
2019-01-22T20:55:24.813Z,47.87
2019-01-22T20:57:55.030Z,47.60
2019-01-22T21:00:25.108Z,50.10
2019-01-22T21:02:54.882Z,44.57
2019-01-22T21:05:25.777Z,42.93
2019-01-22T21:07:54.429Z,41.97
2019-01-22T21:10:29.501Z,54.03
2019-01-22T21:12:58.196Z,46.57
2019-01-22T21:15:26.893Z,44.33
2019-01-22T21:17:55.544Z,43.93
2019-01-22T21:20:24.081Z,48.53
2019-01-22T21:22:53.310Z,43.93
2019-01-22T21:25:23.818Z,48.23
2019-01-22T21:27:52.648Z,48.70
2019-01-22T21:30:24.370Z,48.33
2019-01-22T21:32:53.512Z,44.60
2019-01-22T21:35:22.400Z,54.67
2019-01-22T21:37:50.985Z,41.30
2019-01-22T21:40:19.940Z,51.40
2019-01-22T21:42:48.765Z,55.30
2019-01-22T21:45:22.812Z,45.87
2019-01-22T21:47:51.537Z,48.83
2019-01-22T21:50:20.414Z,50.30
2019-01-22T21:52:49.019Z,53.20
2019-01-22T21:55:19.803Z,50.70
2019-01-22T21:57:48.536Z,54.70
2019-01-22T22:00:22.677Z,53.53
2019-01-22T22:02:51.408Z,57.77
2019-01-22T22:05:22.409Z,55.80
2019-01-22T22:07:51.115Z,54.07
2019-01-22T22:10:22.056Z,60.40
2019-01-22T22:12:50.978Z,59.97
2019-01-22T22:15:22.530Z,63.07
2019-01-22T22:17:52.932Z,60.27
2019-01-22T22:20:21.460Z,56.13
2019-01-22T22:22:50.089Z,61.83
2019-01-22T22:25:21.884Z,48.97
2019-01-22T22:27:50.466Z,66.97
2019-01-22T22:30:24.878Z,70.00
2019-01-22T22:32:53.852Z,70.33
2019-01-22T22:35:23.552Z,62.63
2019-01-22T22:37:52.234Z,64.10
2019-01-22T22:40:22.628Z,70.40
2019-01-22T22:42:51.584Z,64.27
2019-01-22T22:45:22.163Z,67.40
2019-01-22T22:47:51.162Z,72.83
2019-01-22T22:50:25.370Z,69.83
2019-01-22T22:52:54.017Z,69.37
2019-01-22T22:55:24.646Z,75.97
2019-01-22T22:57:53.536Z,81.07
2019-01-22T23:00:35.415Z,77.03
2019-01-22T23:03:05.471Z,87.87
2019-01-22T23:05:34.777Z,77.47
2019-01-22T23:08:03.366Z,74.70
2019-01-22T23:10:32.087Z,82.40
2019-01-22T23:13:02.668Z,75.03
2019-01-22T23:15:31.212Z,83.47
2019-01-22T23:18:00.120Z,79.40
2019-01-22T23:20:28.717Z,81.53
2019-01-22T23:22:57.281Z,84.07
2019-01-22T23:25:26.182Z,87.63
2019-01-22T23:27:54.777Z,88.87
2019-01-22T23:30:23.873Z,81.93
2019-01-22T23:32:52.405Z,89.90
2019-01-22T23:35:21.125Z,82.73
2019-01-22T23:37:49.702Z,78.57
2019-01-22T23:40:18.813Z,93.10
2019-01-22T23:42:49.187Z,103.80
2019-01-22T23:45:17.812Z,88.30
2019-01-22T23:47:46.350Z,93.77
2019-01-22T23:50:16.252Z,86.57
2019-01-22T23:52:44.789Z,99.40
2019-01-22T23:55:13.717Z,89.87
2019-01-22T23:57:42.274Z,88.03
